Terminal Aerodrome Forecast
Issued by NWS Charleston, WV

Current Version | Previous Version | Graphics & Text | Print | Product List | Glossary On
Versions: 1 2 3 4 5 6 7 8 9 10 11 12 13 14 15 16 17 18 19 20 21 22 23 24 25 26 27 28 29 30
000
FTUS41 KRLX 171100
TAFHTS
TAF
KHTS 171135Z 1712/1812 20006KT P6SM BKN025
     FM171300 22008KT P6SM SCT012 BKN035
     FM171700 21011G18KT P6SM SCT250
     FM172300 24009KT P6SM BKN090=

USA.gov is the U.S. government's official web portal to all federal, state and local government web resources and services.